Time;durP1;ratioP1;P1;durP2;ratioP2;P2;SDS_P1;SDS_P2;PMS_P1;PMS_P2;Temp;Humidity;BMP_temperature;BMP_pressure;BME280_temperature;BME280_humidity;BME280_pressure;Samples;Min_cycle;Max_cycle;Signal;HPM_P1;HPM_P2
2023/12/17 00:00:31;;;;;;;;;;;20.20;47.50;;;;;;5095353;28;19932;-61
2023/12/17 00:02:57;;;;;;;;;;;20.20;47.50;;;;;;5098252;28;19924;-61
2023/12/17 00:05:23;;;;;;;;;;;20.20;47.50;;;;;;5102043;28;19924;-61
2023/12/17 00:07:51;;;;;;;;;;;20.20;47.50;;;;;;5093167;28;20075;-61
2023/12/17 00:10:18;;;;;;;;;;;20.20;47.50;;;;;;5100781;28;19943;-61
2023/12/17 00:12:45;;;;;;;;;;;20.20;47.50;;;;;;5082222;28;19924;-61
2023/12/17 00:15:12;;;;;;;;;;;20.10;47.40;;;;;;5111684;28;19930;-61
2023/12/17 00:17:39;;;;;;;;;;;20.20;47.50;;;;;;5102307;28;19924;-61
2023/12/17 00:20:06;;;;;;;;;;;20.10;47.40;;;;;;5111984;28;19923;-61
2023/12/17 00:22:32;;;;;;;;;;;20.10;47.40;;;;;;5099197;28;19924;-61
2023/12/17 00:25:01;;;;;;;;;;;20.20;47.50;;;;;;5095557;28;20385;-61
2023/12/17 00:27:27;;;;;;;;;;;20.10;47.40;;;;;;5102819;28;19924;-61
2023/12/17 00:29:54;;;;;;;;;;;20.10;47.40;;;;;;5100726;28;19924;-61
2023/12/17 00:32:21;;;;;;;;;;;20.10;47.40;;;;;;5105335;28;19928;-61
2023/12/17 00:34:48;;;;;;;;;;;20.10;47.40;;;;;;5113356;28;20625;-61
2023/12/17 00:37:14;;;;;;;;;;;20.10;47.40;;;;;;5092022;28;19928;-61
2023/12/17 00:39:41;;;;;;;;;;;20.10;47.50;;;;;;5093861;28;19932;-61
2023/12/17 00:42:10;;;;;;;;;;;20.10;47.50;;;;;;5101082;28;19969;-61
2023/12/17 00:44:37;;;;;;;;;;;20.10;47.50;;;;;;5095706;28;19970;-61
2023/12/17 00:47:04;;;;;;;;;;;20.10;47.40;;;;;;5100204;28;19936;-61
2023/12/17 00:49:31;;;;;;;;;;;20.10;47.40;;;;;;5103773;28;19942;-61
2023/12/17 00:51:57;;;;;;;;;;;20.10;47.50;;;;;;5098183;28;19924;-61
2023/12/17 00:54:24;;;;;;;;;;;20.10;47.50;;;;;;5097318;28;19924;-61
2023/12/17 00:56:51;;;;;;;;;;;20.10;47.50;;;;;;5110956;28;19928;-61
2023/12/17 00:59:19;;;;;;;;;;;20.10;47.50;;;;;;5093494;28;19928;-61
2023/12/17 01:01:46;;;;;;;;;;;20.10;47.50;;;;;;5086809;28;19968;-61
2023/12/17 01:04:13;;;;;;;;;;;20.10;47.50;;;;;;5115927;28;19931;-61
2023/12/17 01:06:39;;;;;;;;;;;20.10;47.40;;;;;;5085201;28;19951;-61
2023/12/17 01:09:06;;;;;;;;;;;20.10;47.50;;;;;;5112917;28;19923;-61
2023/12/17 01:11:33;;;;;;;;;;;20.10;47.50;;;;;;5096488;28;19932;-61
2023/12/17 01:13:59;;;;;;;;;;;20.10;47.50;;;;;;5110111;28;20358;-61
2023/12/17 01:16:28;;;;;;;;;;;20.10;47.50;;;;;;5112199;28;19927;-61
2023/12/17 01:18:54;;;;;;;;;;;20.10;47.50;;;;;;5113766;28;19993;-61
2023/12/17 01:21:21;;;;;;;;;;;20.10;47.50;;;;;;5111575;27;19976;-61
2023/12/17 01:23:48;;;;;;;;;;;20.10;47.50;;;;;;5097013;28;19923;-61
2023/12/17 01:26:18;;;;;;;;;;;20.10;47.50;;;;;;5114740;28;19924;-61
2023/12/17 01:28:44;;;;;;;;;;;20.10;47.50;;;;;;5096784;28;19977;-61
2023/12/17 01:31:11;;;;;;;;;;;20.10;47.50;;;;;;5103649;28;19934;-61
2023/12/17 01:33:39;;;;;;;;;;;20.10;47.50;;;;;;5096883;28;19955;-61
2023/12/17 01:36:06;;;;;;;;;;;20.10;47.50;;;;;;5096893;28;19935;-61
2023/12/17 01:38:33;;;;;;;;;;;20.10;47.40;;;;;;5115213;28;19931;-61
2023/12/17 01:41:00;;;;;;;;;;;20.10;47.40;;;;;;5096220;28;19931;-61
2023/12/17 01:43:27;;;;;;;;;;;20.10;47.40;;;;;;5095481;28;19928;-61
2023/12/17 01:45:53;;;;;;;;;;;20.00;47.40;;;;;;5105075;28;19924;-61
2023/12/17 01:48:20;;;;;;;;;;;20.10;47.50;;;;;;5096401;28;19924;-61
2023/12/17 01:50:48;;;;;;;;;;;20.10;47.50;;;;;;5109854;27;19931;-61
2023/12/17 01:53:15;;;;;;;;;;;20.10;47.50;;;;;;5097701;28;19924;-61
2023/12/17 01:55:42;;;;;;;;;;;20.10;47.50;;;;;;5118668;27;19996;-61
2023/12/17 01:58:09;;;;;;;;;;;20.10;47.50;;;;;;5112383;27;19927;-61
2023/12/17 02:00:36;;;;;;;;;;;20.10;47.50;;;;;;5099636;27;19928;-61
2023/12/17 02:03:03;;;;;;;;;;;20.00;47.40;;;;;;5117973;27;19973;-60
2023/12/17 02:05:31;;;;;;;;;;;20.10;47.50;;;;;;5105021;28;19946;-61
2023/12/17 02:08:00;;;;;;;;;;;20.00;47.50;;;;;;5113993;28;19923;-60
2023/12/17 02:10:26;;;;;;;;;;;20.10;47.50;;;;;;5112553;28;19924;-61
2023/12/17 02:12:53;;;;;;;;;;;20.10;47.50;;;;;;5114523;28;19992;-61
2023/12/17 02:15:20;;;;;;;;;;;20.10;47.50;;;;;;5094150;28;19923;-60
2023/12/17 02:17:46;;;;;;;;;;;20.10;47.50;;;;;;5117619;27;19977;-61
2023/12/17 02:20:13;;;;;;;;;;;20.10;47.50;;;;;;5113713;28;19924;-61
2023/12/17 02:22:40;;;;;;;;;;;20.10;47.50;;;;;;5114091;28;19976;-61
2023/12/17 02:25:09;;;;;;;;;;;20.00;47.40;;;;;;5113772;28;20005;-61
2023/12/17 02:27:35;;;;;;;;;;;20.00;47.50;;;;;;5104220;28;19980;-61
2023/12/17 02:30:02;;;;;;;;;;;20.10;47.50;;;;;;5110989;28;19928;-61
2023/12/17 02:32:29;;;;;;;;;;;20.00;47.40;;;;;;5100968;28;20393;-60
2023/12/17 02:34:56;;;;;;;;;;;20.00;47.40;;;;;;5108718;28;19931;-61
2023/12/17 02:37:23;;;;;;;;;;;20.00;47.40;;;;;;5113162;28;19981;-61
2023/12/17 02:39:49;;;;;;;;;;;20.00;47.40;;;;;;5112652;28;19931;-61
2023/12/17 02:42:18;;;;;;;;;;;20.00;47.40;;;;;;5102737;28;19923;-61
2023/12/17 02:44:45;;;;;;;;;;;20.00;47.40;;;;;;5094601;28;19923;-61
2023/12/17 02:47:12;;;;;;;;;;;20.00;47.40;;;;;;5108740;28;20319;-61
2023/12/17 02:49:38;;;;;;;;;;;20.00;47.40;;;;;;5120127;27;19976;-61
2023/12/17 02:52:05;;;;;;;;;;;20.00;47.40;;;;;;5102708;28;19927;-61
2023/12/17 02:54:32;;;;;;;;;;;20.00;47.40;;;;;;5095212;28;19948;-61
2023/12/17 02:56:59;;;;;;;;;;;20.00;47.40;;;;;;5095088;28;19923;-61
2023/12/17 02:59:27;;;;;;;;;;;20.00;47.40;;;;;;5094737;28;20022;-60
2023/12/17 03:01:53;;;;;;;;;;;20.00;47.40;;;;;;5101416;28;19924;-61
2023/12/17 03:04:20;;;;;;;;;;;20.00;47.40;;;;;;5093109;28;19923;-61
2023/12/17 03:06:47;;;;;;;;;;;20.00;47.40;;;;;;5104351;28;20040;-61
2023/12/17 03:09:14;;;;;;;;;;;20.00;47.40;;;;;;5092775;28;19947;-61
2023/12/17 03:11:41;;;;;;;;;;;20.00;47.40;;;;;;5120438;27;19946;-60
2023/12/17 03:14:08;;;;;;;;;;;20.00;48.00;;;;;;5112189;28;19938;-60
2023/12/17 03:16:36;;;;;;;;;;;20.00;47.40;;;;;;5112283;28;19970;-60
2023/12/17 03:19:03;;;;;;;;;;;20.00;47.40;;;;;;5099789;28;19928;-61
2023/12/17 03:21:29;;;;;;;;;;;20.00;47.40;;;;;;5101315;28;20331;-61
2023/12/17 03:23:56;;;;;;;;;;;20.00;47.40;;;;;;5098849;28;19949;-60
2023/12/17 03:26:23;;;;;;;;;;;20.00;47.40;;;;;;5095815;28;19932;-61
2023/12/17 03:28:49;;;;;;;;;;;20.00;47.40;;;;;;5103315;28;19924;-61
2023/12/17 03:31:16;;;;;;;;;;;20.00;47.40;;;;;;5094623;28;19946;-61
2023/12/17 03:33:44;;;;;;;;;;;20.00;47.40;;;;;;5102434;28;19973;-61
2023/12/17 03:36:13;;;;;;;;;;;20.00;47.40;;;;;;5112693;28;19977;-61
2023/12/17 03:38:39;;;;;;;;;;;20.00;47.40;;;;;;5101514;28;20014;-60
2023/12/17 03:41:06;;;;;;;;;;;20.00;47.40;;;;;;5091859;28;19927;-61
2023/12/17 03:43:33;;;;;;;;;;;20.00;47.40;;;;;;5102548;28;19931;-61
2023/12/17 03:46:00;;;;;;;;;;;20.00;47.40;;;;;;5094668;28;19924;-61
2023/12/17 03:48:26;;;;;;;;;;;20.00;47.40;;;;;;5094249;28;19931;-61
2023/12/17 03:50:55;;;;;;;;;;;20.00;47.40;;;;;;5093052;28;19927;-61
2023/12/17 03:53:21;;;;;;;;;;;20.00;47.40;;;;;;5094751;28;20422;-61
2023/12/17 03:55:48;;;;;;;;;;;20.00;47.40;;;;;;5089767;28;19978;-61
2023/12/17 03:58:15;;;;;;;;;;;20.00;47.40;;;;;;5094778;28;19969;-61
2023/12/17 04:00:42;;;;;;;;;;;20.00;47.40;;;;;;5093380;28;19923;-61
2023/12/17 04:03:09;;;;;;;;;;;20.00;47.40;;;;;;5101630;28;19927;-61
2023/12/17 04:05:35;;;;;;;;;;;20.00;47.40;;;;;;5101906;28;19931;-61
2023/12/17 04:08:05;;;;;;;;;;;20.00;47.40;;;;;;5111609;28;20056;-61
2023/12/17 04:10:32;;;;;;;;;;;20.00;47.40;;;;;;5112338;28;19969;-61
2023/12/17 04:12:59;;;;;;;;;;;20.00;47.40;;;;;;5106173;28;19924;-61
2023/12/17 04:15:25;;;;;;;;;;;20.00;47.40;;;;;;5120819;28;19947;-61
2023/12/17 04:17:52;;;;;;;;;;;20.00;47.40;;;;;;5097930;28;20159;-61
2023/12/17 04:20:19;;;;;;;;;;;20.00;47.40;;;;;;5098783;28;19973;-61
2023/12/17 04:22:46;;;;;;;;;;;20.00;47.40;;;;;;5099574;28;19928;-61
2023/12/17 04:25:14;;;;;;;;;;;20.00;47.40;;;;;;5110607;28;19924;-61
2023/12/17 04:27:40;;;;;;;;;;;20.00;47.40;;;;;;5096634;28;19973;-61
2023/12/17 04:30:08;;;;;;;;;;;20.00;47.40;;;;;;5096639;27;19928;-61
2023/12/17 04:32:34;;;;;;;;;;;20.00;47.40;;;;;;5104333;28;19928;-61
2023/12/17 04:35:03;;;;;;;;;;;20.00;47.40;;;;;;5096652;28;19923;-61
2023/12/17 04:37:30;;;;;;;;;;;20.00;47.40;;;;;;5105207;28;20487;-61
2023/12/17 04:40:01;;;;;;;;;;;20.00;47.40;;;;;;5109613;28;20331;-61
2023/12/17 04:42:29;;;;;;;;;;;20.00;47.40;;;;;;5095321;28;19928;-61
2023/12/17 04:44:56;;;;;;;;;;;20.00;47.40;;;;;;5115992;27;19949;-61
2023/12/17 04:47:22;;;;;;;;;;;20.00;48.00;;;;;;5108638;27;19980;-61
2023/12/17 04:49:49;;;;;;;;;;;20.00;47.40;;;;;;5114679;28;19989;-60
2023/12/17 04:52:16;;;;;;;;;;;20.00;47.40;;;;;;5102449;28;19928;-61
2023/12/17 04:54:43;;;;;;;;;;;20.00;47.40;;;;;;5113548;28;20027;-60
2023/12/17 04:57:11;;;;;;;;;;;20.00;47.40;;;;;;5095592;28;20532;-61
2023/12/17 04:59:39;;;;;;;;;;;20.00;47.40;;;;;;5104136;27;19978;-61
2023/12/17 05:02:06;;;;;;;;;;;20.00;47.40;;;;;;5118945;27;19928;-61
2023/12/17 05:04:33;;;;;;;;;;;20.00;47.40;;;;;;5104759;28;19976;-61
2023/12/17 05:07:00;;;;;;;;;;;20.00;47.30;;;;;;5104419;28;19924;-61
2023/12/17 05:09:27;;;;;;;;;;;20.00;47.30;;;;;;5096519;28;19946;-61
2023/12/17 05:11:55;;;;;;;;;;;20.00;47.40;;;;;;5107035;28;20026;-61
2023/12/17 05:14:28;;;;;;;;;;;20.00;47.40;;;;;;5112018;27;19931;-61
2023/12/17 05:16:56;;;;;;;;;;;20.00;47.30;;;;;;5112886;28;19928;-61
2023/12/17 05:19:23;;;;;;;;;;;20.00;47.30;;;;;;5102473;27;20032;-61
2023/12/17 05:21:50;;;;;;;;;;;20.00;47.40;;;;;;5094833;28;19949;-61
2023/12/17 05:24:17;;;;;;;;;;;20.00;47.30;;;;;;5103256;28;19924;-61
2023/12/17 05:26:43;;;;;;;;;;;20.00;47.30;;;;;;5095674;28;19958;-61
2023/12/17 05:29:10;;;;;;;;;;;20.00;47.30;;;;;;5113918;28;19924;-61
2023/12/17 05:31:37;;;;;;;;;;;20.00;47.40;;;;;;5103502;28;19928;-61
2023/12/17 05:34:08;;;;;;;;;;;20.00;47.40;;;;;;5095871;28;19981;-61
2023/12/17 05:36:35;;;;;;;;;;;20.00;47.30;;;;;;5094866;28;19924;-61
2023/12/17 05:39:02;;;;;;;;;;;20.00;47.40;;;;;;5101097;28;19924;-61
2023/12/17 05:41:29;;;;;;;;;;;20.00;47.30;;;;;;5119351;27;19924;-61
2023/12/17 05:43:56;;;;;;;;;;;20.00;47.40;;;;;;5114976;28;19928;-61
2023/12/17 05:46:21;;;;;;;;;;;20.00;47.30;;;;;;5114684;28;19930;-61
2023/12/17 05:48:48;;;;;;;;;;;20.00;47.30;;;;;;5104155;28;19931;-61
2023/12/17 05:51:16;;;;;;;;;;;20.00;47.90;;;;;;5102137;28;19939;-60
2023/12/17 05:53:43;;;;;;;;;;;20.00;47.30;;;;;;5097451;28;20365;-60
2023/12/17 05:56:10;;;;;;;;;;;20.00;47.40;;;;;;5096862;28;19932;-61
2023/12/17 05:58:37;;;;;;;;;;;20.00;47.40;;;;;;5113898;28;19945;-61
2023/12/17 06:01:04;;;;;;;;;;;20.00;47.30;;;;;;5113266;27;19928;-61
2023/12/17 06:03:31;;;;;;;;;;;20.00;47.30;;;;;;5098185;27;19927;-61
2023/12/17 06:05:58;;;;;;;;;;;20.00;47.40;;;;;;5094805;28;20002;-61
2023/12/17 06:08:26;;;;;;;;;;;20.00;47.40;;;;;;5111613;28;19938;-61
2023/12/17 06:10:52;;;;;;;;;;;20.00;47.40;;;;;;5107285;27;19942;-61
2023/12/17 06:13:19;;;;;;;;;;;20.00;47.40;;;;;;5103665;28;19991;-60
2023/12/17 06:15:47;;;;;;;;;;;20.00;47.40;;;;;;5113305;28;19936;-61
2023/12/17 06:18:17;;;;;;;;;;;20.00;47.40;;;;;;5094174;28;19931;-61
2023/12/17 06:20:44;;;;;;;;;;;20.00;47.40;;;;;;5108153;27;19923;-61
2023/12/17 06:23:12;;;;;;;;;;;20.00;47.40;;;;;;5106965;28;20032;-61
2023/12/17 06:25:40;;;;;;;;;;;20.00;47.40;;;;;;5103246;28;19927;-61
2023/12/17 06:28:06;;;;;;;;;;;20.00;47.40;;;;;;5103487;28;19928;-61
2023/12/17 06:30:33;;;;;;;;;;;20.00;47.40;;;;;;5105043;27;19927;-61
2023/12/17 06:33:00;;;;;;;;;;;20.00;47.40;;;;;;5117219;27;19924;-61
2023/12/17 06:35:27;;;;;;;;;;;20.00;47.40;;;;;;5103554;28;19981;-61
2023/12/17 06:37:54;;;;;;;;;;;20.00;47.40;;;;;;5092305;28;19988;-61
2023/12/17 06:40:20;;;;;;;;;;;20.00;47.40;;;;;;5100887;28;19924;-61
2023/12/17 06:42:49;;;;;;;;;;;20.00;47.40;;;;;;5104936;28;19938;-61
2023/12/17 06:45:15;;;;;;;;;;;20.00;47.40;;;;;;5097055;28;19924;-61
2023/12/17 06:47:42;;;;;;;;;;;20.00;47.80;;;;;;5100880;28;19985;-60
2023/12/17 06:50:10;;;;;;;;;;;20.00;47.40;;;;;;5100686;28;19930;-61
2023/12/17 06:52:37;;;;;;;;;;;20.00;47.40;;;;;;5096812;27;19923;-61
2023/12/17 06:55:04;;;;;;;;;;;20.00;47.40;;;;;;5095238;28;19928;-61
2023/12/17 06:57:31;;;;;;;;;;;20.00;47.40;;;;;;5103594;27;19964;-61
2023/12/17 06:59:59;;;;;;;;;;;20.00;47.40;;;;;;5103768;27;19969;-61
2023/12/17 07:02:25;;;;;;;;;;;20.00;47.40;;;;;;5108193;28;19936;-61
2023/12/17 07:04:52;;;;;;;;;;;20.00;47.50;;;;;;5102791;28;19972;-61
2023/12/17 07:07:18;;;;;;;;;;;20.00;47.40;;;;;;5099472;28;19980;-61
2023/12/17 07:09:45;;;;;;;;;;;20.00;47.40;;;;;;5108563;28;19973;-61
2023/12/17 07:12:12;;;;;;;;;;;20.00;47.40;;;;;;5100418;28;19977;-60
2023/12/17 07:14:38;;;;;;;;;;;20.00;47.40;;;;;;5103960;28;19927;-61
2023/12/17 07:17:07;;;;;;;;;;;20.00;47.40;;;;;;5100208;28;19988;-61
2023/12/17 07:19:33;;;;;;;;;;;20.00;47.40;;;;;;5095587;28;19923;-61
2023/12/17 07:22:00;;;;;;;;;;;20.00;47.40;;;;;;5103042;28;19931;-61
2023/12/17 07:24:27;;;;;;;;;;;20.00;47.40;;;;;;5098714;28;19923;-61
2023/12/17 07:26:54;;;;;;;;;;;20.00;47.40;;;;;;5107125;28;19927;-61
2023/12/17 07:29:20;;;;;;;;;;;20.00;47.40;;;;;;5089084;28;19963;-61
2023/12/17 07:31:47;;;;;;;;;;;20.00;47.50;;;;;;5096881;28;19980;-61
2023/12/17 07:34:15;;;;;;;;;;;20.00;47.40;;;;;;5104636;28;19985;-61
2023/12/17 07:36:42;;;;;;;;;;;20.00;47.40;;;;;;5111864;28;19954;-61
2023/12/17 07:39:09;;;;;;;;;;;20.00;47.50;;;;;;5100614;28;19943;-61
2023/12/17 07:41:35;;;;;;;;;;;20.00;47.50;;;;;;5111674;27;19923;-61
2023/12/17 07:44:02;;;;;;;;;;;20.00;47.40;;;;;;5096281;28;19924;-61
2023/12/17 07:46:29;;;;;;;;;;;20.00;47.40;;;;;;5101125;28;20388;-60
2023/12/17 07:48:56;;;;;;;;;;;20.00;47.40;;;;;;5084906;28;19973;-60
2023/12/17 07:51:24;;;;;;;;;;;20.00;47.40;;;;;;5111046;28;19931;-61
2023/12/17 07:53:50;;;;;;;;;;;20.00;47.40;;;;;;5106529;28;19931;-61
2023/12/17 07:56:17;;;;;;;;;;;20.00;47.40;;;;;;5111845;28;19935;-61
2023/12/17 07:58:44;;;;;;;;;;;20.00;47.40;;;;;;5101435;28;19931;-61
2023/12/17 08:01:11;;;;;;;;;;;20.00;47.40;;;;;;5111389;28;19924;-61
2023/12/17 08:03:38;;;;;;;;;;;20.00;47.40;;;;;;5103908;28;20342;-61
2023/12/17 08:06:05;;;;;;;;;;;20.00;47.40;;;;;;5111741;28;19923;-61
2023/12/17 08:08:33;;;;;;;;;;;20.00;47.50;;;;;;5095953;28;19927;-61
2023/12/17 08:11:00;;;;;;;;;;;20.00;47.40;;;;;;5101319;28;19969;-60
2023/12/17 08:13:26;;;;;;;;;;;20.00;47.40;;;;;;5103475;28;19980;-60
2023/12/17 08:15:54;;;;;;;;;;;20.00;47.40;;;;;;5111682;28;19923;-61
2023/12/17 08:18:21;;;;;;;;;;;20.00;47.40;;;;;;5111923;28;19923;-61
2023/12/17 08:20:48;;;;;;;;;;;20.00;47.40;;;;;;5111242;28;20365;-61
2023/12/17 08:23:15;;;;;;;;;;;20.00;47.40;;;;;;5085621;28;19969;-61
2023/12/17 08:25:43;;;;;;;;;;;20.00;47.40;;;;;;5091160;28;19930;-61
2023/12/17 08:28:10;;;;;;;;;;;20.00;47.40;;;;;;5090537;28;19924;-61
2023/12/17 08:30:38;;;;;;;;;;;20.00;47.40;;;;;;5110581;28;19927;-61
2023/12/17 08:33:05;;;;;;;;;;;20.00;47.40;;;;;;5110657;28;19928;-61
2023/12/17 08:35:32;;;;;;;;;;;20.00;47.40;;;;;;5110207;28;19924;-61
2023/12/17 08:38:03;;;;;;;;;;;20.00;47.40;;;;;;5089957;28;19923;-61
2023/12/17 08:40:30;;;;;;;;;;;20.00;47.40;;;;;;5087850;28;19924;-61
2023/12/17 08:42:59;;;;;;;;;;;20.00;47.40;;;;;;5092247;28;20036;-61
2023/12/17 08:45:25;;;;;;;;;;;20.00;47.40;;;;;;5110752;28;19927;-61
2023/12/17 08:47:52;;;;;;;;;;;20.00;47.40;;;;;;5093766;28;19924;-61
2023/12/17 08:50:19;;;;;;;;;;;20.00;47.40;;;;;;5111711;28;19924;-61
2023/12/17 08:52:46;;;;;;;;;;;20.00;47.40;;;;;;5087498;28;19924;-61
2023/12/17 08:55:12;;;;;;;;;;;20.00;47.50;;;;;;5091755;28;19953;-61
2023/12/17 08:57:39;;;;;;;;;;;20.00;47.50;;;;;;5105094;28;19923;-61
2023/12/17 09:00:08;;;;;;;;;;;20.00;47.50;;;;;;5093736;28;19928;-61
2023/12/17 09:02:35;;;;;;;;;;;20.00;47.50;;;;;;5096481;28;19927;-61
2023/12/17 09:05:01;;;;;;;;;;;20.00;47.50;;;;;;5092256;28;19973;-61
2023/12/17 09:07:28;;;;;;;;;;;20.00;47.50;;;;;;5109088;28;19973;-62
2023/12/17 09:09:54;;;;;;;;;;;20.00;47.50;;;;;;5113522;27;19927;-61
2023/12/17 09:12:20;;;;;;;;;;;20.00;47.50;;;;;;5114012;27;19945;-62
2023/12/17 09:14:47;;;;;;;;;;;20.00;47.50;;;;;;5103641;28;19924;-61
2023/12/17 09:17:15;;;;;;;;;;;20.00;47.50;;;;;;5114503;28;19931;-61
2023/12/17 09:19:42;;;;;;;;;;;20.00;47.50;;;;;;5114357;28;19935;-61
2023/12/17 09:22:09;;;;;;;;;;;20.00;47.50;;;;;;5110723;28;19977;-61
2023/12/17 09:24:35;;;;;;;;;;;20.00;47.50;;;;;;5114743;28;19924;-62
2023/12/17 09:27:03;;;;;;;;;;;20.00;47.50;;;;;;5091878;28;19924;-61
2023/12/17 09:29:29;;;;;;;;;;;20.00;47.50;;;;;;5094555;28;19927;-61
2023/12/17 09:31:56;;;;;;;;;;;20.00;47.50;;;;;;5096833;28;19969;-61
2023/12/17 09:34:24;;;;;;;;;;;20.00;47.50;;;;;;5092480;28;19924;-61
2023/12/17 09:36:51;;;;;;;;;;;20.00;47.50;;;;;;5119511;27;19965;-62
2023/12/17 09:39:18;;;;;;;;;;;20.00;47.50;;;;;;5114721;28;19928;-61
2023/12/17 09:41:44;;;;;;;;;;;20.00;47.50;;;;;;5096395;28;19923;-61
2023/12/17 09:44:11;;;;;;;;;;;20.00;47.50;;;;;;5098065;28;19977;-61
2023/12/17 09:46:38;;;;;;;;;;;20.00;47.50;;;;;;5114356;28;19927;-61
2023/12/17 09:49:04;;;;;;;;;;;20.00;47.50;;;;;;5096529;28;19924;-61
2023/12/17 09:51:33;;;;;;;;;;;20.00;47.50;;;;;;5112858;28;19981;-61
2023/12/17 09:53:59;;;;;;;;;;;20.00;47.50;;;;;;5099736;28;20315;-61
2023/12/17 09:56:26;;;;;;;;;;;20.00;47.50;;;;;;5095973;28;19996;-61
2023/12/17 09:58:53;;;;;;;;;;;20.00;47.50;;;;;;5096724;28;19977;-61
2023/12/17 10:01:19;;;;;;;;;;;20.00;47.50;;;;;;5113559;27;19924;-61
2023/12/17 10:03:46;;;;;;;;;;;20.00;47.50;;;;;;5096262;28;20012;-61
2023/12/17 10:06:13;;;;;;;;;;;20.00;47.40;;;;;;5095159;28;20400;-62
2023/12/17 10:08:41;;;;;;;;;;;20.00;47.40;;;;;;5113454;28;19931;-61
2023/12/17 10:11:08;;;;;;;;;;;20.00;47.40;;;;;;5095938;28;20373;-61
2023/12/17 10:13:35;;;;;;;;;;;20.00;47.40;;;;;;5094905;28;19924;-61
2023/12/17 10:16:02;;;;;;;;;;;20.00;47.50;;;;;;5113591;27;19927;-62
2023/12/17 10:18:29;;;;;;;;;;;20.00;47.50;;;;;;5078206;28;19924;-61
2023/12/17 10:20:56;;;;;;;;;;;20.00;46.10;;;;;;5094827;28;19985;-62
2023/12/17 10:23:23;;;;;;;;;;;20.00;44.60;;;;;;5098695;27;19928;-62
2023/12/17 10:25:59;;;;;;;;;;;19.90;44.70;;;;;;5105175;28;20275;-59
2023/12/17 10:28:26;;;;;;;;;;;19.80;44.80;;;;;;5099621;28;19935;-62
2023/12/17 10:30:52;;;;;;;;;;;19.80;44.70;;;;;;5103011;28;19928;-58
2023/12/17 10:33:21;;;;;;;;;;;19.70;44.80;;;;;;5110629;27;19923;-61
2023/12/17 10:35:48;;;;;;;;;;;19.60;44.60;;;;;;5111047;28;19934;-61
2023/12/17 10:38:14;;;;;;;;;;;19.50;44.40;;;;;;5097056;28;19977;-59
2023/12/17 10:40:41;;;;;;;;;;;19.50;44.60;;;;;;5098840;28;19924;-59
2023/12/17 10:43:09;;;;;;;;;;;19.40;44.70;;;;;;5103128;28;19943;-56
2023/12/17 10:45:37;;;;;;;;;;;19.40;44.80;;;;;;5097281;28;19931;-59
2023/12/17 10:48:04;;;;;;;;;;;19.40;44.80;;;;;;5098756;28;20280;-60
2023/12/17 10:50:31;;;;;;;;;;;19.40;44.70;;;;;;5111822;28;19965;-58
2023/12/17 10:52:58;;;;;;;;;;;19.40;44.70;;;;;;5097634;28;20467;-62
2023/12/17 10:55:25;;;;;;;;;;;19.30;44.60;;;;;;5100756;28;19923;-58
2023/12/17 10:57:52;;;;;;;;;;;19.30;44.80;;;;;;5091354;28;19967;-61
2023/12/17 11:00:21;;;;;;;;;;;19.30;44.80;;;;;;5105250;28;20026;-61
2023/12/17 11:02:48;;;;;;;;;;;19.30;44.70;;;;;;5096740;28;19976;-59
2023/12/17 11:05:18;;;;;;;;;;;19.30;44.50;;;;;;5089438;28;19928;-58
2023/12/17 11:07:45;;;;;;;;;;;19.30;44.60;;;;;;5093306;28;19927;-56
2023/12/17 11:10:13;;;;;;;;;;;19.30;44.50;;;;;;5092244;28;20373;-59
2023/12/17 11:12:42;;;;;;;;;;;19.30;44.50;;;;;;5106588;28;19933;-61
2023/12/17 11:15:10;;;;;;;;;;;19.30;44.50;;;;;;5100643;28;20368;-60
2023/12/17 11:17:39;;;;;;;;;;;19.30;44.30;;;;;;5091579;28;19934;-60
2023/12/17 11:20:07;;;;;;;;;;;19.30;44.10;;;;;;5111512;27;19931;-61
2023/12/17 11:22:34;;;;;;;;;;;19.20;43.90;;;;;;5112233;27;19946;-64
2023/12/17 11:25:02;;;;;;;;;;;19.20;44.00;;;;;;5110583;28;20022;-62
2023/12/17 11:27:33;;;;;;;;;;;19.10;44.00;;;;;;5089503;28;19931;-61
2023/12/17 11:30:01;;;;;;;;;;;19.00;43.90;;;;;;5094701;28;19928;-60
2023/12/17 11:32:35;;;;;;;;;;;19.00;44.10;;;;;;5095218;28;19932;-61
2023/12/17 11:35:04;;;;;;;;;;;18.90;44.20;;;;;;5110406;28;19928;-63
2023/12/17 11:37:34;;;;;;;;;;;18.90;44.20;;;;;;5082587;28;20388;-61
2023/12/17 11:40:01;;;;;;;;;;;18.80;44.20;;;;;;5073433;28;19924;-64
2023/12/17 11:42:28;;;;;;;;;;;18.70;44.30;;;;;;5091696;28;20121;-64
2023/12/17 11:44:55;;;;;;;;;;;18.80;44.60;;;;;;5092382;28;19924;-63
2023/12/17 11:47:25;;;;;;;;;;;18.70;44.60;;;;;;5094703;28;20041;-63
2023/12/17 11:49:57;;;;;;;;;;;18.70;44.70;;;;;;5092440;28;20292;-63
2023/12/17 11:52:25;;;;;;;;;;;18.70;44.70;;;;;;5093202;28;20004;-63
2023/12/17 11:54:58;;;;;;;;;;;18.80;44.80;;;;;;5091182;28;19932;-64
2023/12/17 11:57:24;;;;;;;;;;;18.70;44.80;;;;;;5093296;27;19932;-64
2023/12/17 11:59:51;;;;;;;;;;;18.80;44.80;;;;;;5098189;28;19924;-66
2023/12/17 12:02:18;;;;;;;;;;;18.80;44.80;;;;;;5101529;28;19924;-62
2023/12/17 12:04:45;;;;;;;;;;;18.80;44.90;;;;;;5094118;28;20049;-63
2023/12/17 12:07:12;;;;;;;;;;;18.90;45.00;;;;;;5092666;28;19931;-62
2023/12/17 12:09:40;;;;;;;;;;;18.90;45.00;;;;;;5097817;28;19932;-64
2023/12/17 12:12:16;;;;;;;;;;;18.90;45.00;;;;;;5109598;28;19980;-61
2023/12/17 12:14:44;;;;;;;;;;;19.00;45.00;;;;;;5097264;28;19953;-64
2023/12/17 12:17:26;;;;;;;;;;;19.00;45.00;;;;;;5094857;28;20022;-63
2023/12/17 12:19:52;;;;;;;;;;;19.00;45.00;;;;;;5096237;28;19925;-61
2023/12/17 12:22:19;;;;;;;;;;;19.00;45.00;;;;;;5096982;28;19932;-60
2023/12/17 12:24:47;;;;;;;;;;;19.10;45.00;;;;;;5101530;28;19924;-62
2023/12/17 12:27:14;;;;;;;;;;;19.10;45.00;;;;;;5097632;28;19924;-62
2023/12/17 12:29:46;;;;;;;;;;;19.10;45.00;;;;;;5096126;28;19935;-61
2023/12/17 12:32:14;;;;;;;;;;;19.10;45.00;;;;;;5094861;28;19924;-61
2023/12/17 12:34:45;;;;;;;;;;;19.10;44.90;;;;;;5111420;28;19923;-61
2023/12/17 12:37:11;;;;;;;;;;;19.20;45.00;;;;;;5078875;28;19924;-61
2023/12/17 12:39:47;;;;;;;;;;;19.20;45.00;;;;;;5109833;28;19934;-60
2023/12/17 12:42:17;;;;;;;;;;;19.20;45.10;;;;;;5097103;28;20335;-61
2023/12/17 12:44:44;;;;;;;;;;;19.20;45.00;;;;;;5109361;27;19954;-60
2023/12/17 12:47:10;;;;;;;;;;;19.20;45.00;;;;;;5099371;28;20298;-60
2023/12/17 12:49:37;;;;;;;;;;;19.20;45.00;;;;;;5098913;28;19924;-60
2023/12/17 12:52:04;;;;;;;;;;;19.20;45.00;;;;;;5099354;28;19931;-61
2023/12/17 12:54:31;;;;;;;;;;;19.20;45.00;;;;;;5101070;27;19927;-60
2023/12/17 12:56:59;;;;;;;;;;;19.20;45.00;;;;;;5113271;27;20285;-61
2023/12/17 12:59:26;;;;;;;;;;;19.20;44.90;;;;;;5104481;28;19924;-60
2023/12/17 13:01:54;;;;;;;;;;;19.20;44.90;;;;;;5103845;28;19927;-61
2023/12/17 13:04:21;;;;;;;;;;;19.20;44.90;;;;;;5113479;28;19977;-60
2023/12/17 13:06:48;;;;;;;;;;;19.20;44.90;;;;;;5098441;28;19967;-60
2023/12/17 13:09:15;;;;;;;;;;;19.20;44.90;;;;;;5101591;28;19948;-60
2023/12/17 13:11:41;;;;;;;;;;;19.20;44.90;;;;;;5098995;28;19928;-59
2023/12/17 13:14:10;;;;;;;;;;;19.20;44.90;;;;;;5093269;28;19928;-60
2023/12/17 13:16:37;;;;;;;;;;;19.20;44.90;;;;;;5101560;28;19984;-59
2023/12/17 13:19:04;;;;;;;;;;;19.20;44.90;;;;;;5102555;28;20011;-59
2023/12/17 13:21:30;;;;;;;;;;;19.20;44.90;;;;;;5102394;28;19942;-59
2023/12/17 13:23:57;;;;;;;;;;;19.20;44.90;;;;;;5092342;28;19934;-60
2023/12/17 13:26:24;;;;;;;;;;;19.20;44.90;;;;;;5094411;28;19935;-60
2023/12/17 13:28:51;;;;;;;;;;;19.30;45.00;;;;;;5097978;28;19995;-59
2023/12/17 13:31:19;;;;;;;;;;;19.30;45.00;;;;;;5095543;28;19973;-60
2023/12/17 13:33:46;;;;;;;;;;;19.30;45.00;;;;;;5097310;28;20399;-59
2023/12/17 13:36:13;;;;;;;;;;;19.30;45.60;;;;;;5112395;27;19935;-59
2023/12/17 13:38:39;;;;;;;;;;;19.30;45.10;;;;;;5111171;28;19977;-60
2023/12/17 13:41:06;;;;;;;;;;;19.30;45.00;;;;;;5091814;28;19932;-60
2023/12/17 13:43:33;;;;;;;;;;;19.40;45.20;;;;;;5098574;28;19923;-59
2023/12/17 13:46:00;;;;;;;;;;;19.40;45.20;;;;;;5094528;28;19928;-59
2023/12/17 13:48:28;;;;;;;;;;;19.40;45.20;;;;;;5095508;28;19965;-59
2023/12/17 13:50:54;;;;;;;;;;;19.40;45.20;;;;;;5101379;28;19961;-60
2023/12/17 13:53:21;;;;;;;;;;;19.40;45.20;;;;;;5095750;28;20325;-60
2023/12/17 13:55:48;;;;;;;;;;;19.40;45.20;;;;;;5096338;27;19927;-61
2023/12/17 13:58:16;;;;;;;;;;;19.40;45.20;;;;;;5110622;27;19924;-59
2023/12/17 14:00:42;;;;;;;;;;;19.40;45.20;;;;;;5095582;28;19924;-60
2023/12/17 14:03:09;;;;;;;;;;;19.50;45.30;;;;;;5110412;28;19924;-61
2023/12/17 14:05:38;;;;;;;;;;;19.50;45.30;;;;;;5100732;28;19924;-60
2023/12/17 14:08:05;;;;;;;;;;;19.50;45.30;;;;;;5087589;28;19928;-59
2023/12/17 14:10:31;;;;;;;;;;;19.50;45.30;;;;;;5112204;28;20154;-59
2023/12/17 14:13:00;;;;;;;;;;;19.50;45.30;;;;;;5095261;28;19924;-61
2023/12/17 14:15:27;;;;;;;;;;;19.50;45.30;;;;;;5097918;27;19927;-59